createdAt,value
2018-07-13T00:00:17.404Z,1011.57
2018-07-13T00:01:17.406Z,1011.77
2018-07-13T00:02:17.439Z,1011.87
2018-07-13T00:03:17.419Z,1011.96
2018-07-13T00:04:17.414Z,1012.18
2018-07-13T00:05:17.493Z,1012.25
2018-07-13T00:06:17.392Z,1012.06
2018-07-13T00:07:17.395Z,1012.05
2018-07-13T00:08:17.432Z,1012.25
2018-07-13T00:09:17.403Z,1012.15
2018-07-13T00:10:17.440Z,1012.51
2018-07-13T00:11:17.413Z,1012.43
2018-07-13T00:12:17.399Z,1012.32
2018-07-13T00:13:17.442Z,1012.41
2018-07-13T00:14:17.418Z,1012.5
2018-07-13T00:15:17.440Z,1012.43
2018-07-13T00:16:17.435Z,1012.5
2018-07-13T00:17:17.434Z,1012.48
2018-07-13T00:18:17.425Z,1012.58
2018-07-13T00:19:17.456Z,1012.4
2018-07-13T00:20:17.431Z,1012.21
2018-07-13T00:21:17.461Z,1012.32
2018-07-13T00:22:17.439Z,1012.25
2018-07-13T00:23:17.473Z,1012.5
2018-07-13T00:24:17.486Z,1012.61
2018-07-13T00:25:17.456Z,1012.65
2018-07-13T00:26:17.443Z,1012.48
2018-07-13T00:27:17.447Z,1012.82
2018-07-13T00:28:17.489Z,1013.16
2018-07-13T00:29:17.436Z,1012.67
2018-07-13T00:30:17.494Z,1012.65
2018-07-13T00:31:17.486Z,1012.81
2018-07-13T00:32:17.488Z,1012.64
2018-07-13T00:33:17.486Z,1012.85
2018-07-13T00:34:17.478Z,1012.93
2018-07-13T00:35:17.505Z,1013.05
2018-07-13T00:36:17.478Z,1012.86
2018-07-13T00:37:17.521Z,1012.95
2018-07-13T00:38:17.468Z,1013.06
2018-07-13T00:39:17.500Z,1012.94
2018-07-13T00:40:17.507Z,1013.01
2018-07-13T00:41:17.474Z,1013.18
2018-07-13T00:42:17.496Z,1013.3
2018-07-13T00:43:17.507Z,1013.46
2018-07-13T00:44:17.460Z,1013.24
2018-07-13T00:45:17.506Z,1013.34
2018-07-13T00:46:17.481Z,1013.22
2018-07-13T00:47:17.550Z,1013.43
2018-07-13T00:48:17.523Z,1013.79
2018-07-13T00:49:17.485Z,1013.63
2018-07-13T00:50:17.543Z,1013.64
2018-07-13T00:51:17.486Z,1013.99
2018-07-13T00:52:17.491Z,1013.64
2018-07-13T00:53:17.548Z,1014.1
2018-07-13T00:54:17.501Z,1014.15
2018-07-13T00:55:17.524Z,1014.1
2018-07-13T00:56:17.569Z,1013.84
2018-07-13T00:57:17.523Z,1014.17
2018-07-13T00:58:17.525Z,1014.09
2018-07-13T00:59:17.510Z,1014.27
2018-07-13T01:00:17.522Z,1014.36
2018-07-13T01:01:17.515Z,1014.08
2018-07-13T01:02:17.499Z,1014.06
2018-07-13T01:03:17.511Z,1014.19
2018-07-13T01:04:17.520Z,1014.07
2018-07-13T01:05:17.597Z,1014.13
2018-07-13T01:06:17.508Z,1014.28
2018-07-13T01:07:17.543Z,1014.49
2018-07-13T01:08:17.521Z,1014.22
2018-07-13T01:09:17.546Z,1014.3
2018-07-13T01:10:17.548Z,1014.34
2018-07-13T01:11:17.535Z,1014.11
2018-07-13T01:12:17.542Z,1014.37
2018-07-13T01:13:17.578Z,1014.47
2018-07-13T01:14:17.575Z,1014.23
2018-07-13T01:15:17.536Z,1014.32
2018-07-13T01:16:17.536Z,1014.23
2018-07-13T01:17:17.556Z,1014.37
2018-07-13T01:18:17.591Z,1014.43
2018-07-13T01:19:18.153Z,1014.45
2018-07-13T01:20:17.599Z,1014.41
2018-07-13T01:21:17.592Z,1014.35
2018-07-13T01:22:17.577Z,1014.41
2018-07-13T01:23:17.605Z,1014.59
2018-07-13T01:24:17.574Z,1014.51
2018-07-13T01:25:17.576Z,1014.89
2018-07-13T01:26:17.587Z,1014.86
2018-07-13T01:27:17.569Z,1014.97
2018-07-13T01:28:17.661Z,1015.13
2018-07-13T01:29:17.573Z,1015.25
2018-07-13T01:30:17.589Z,1015.52
2018-07-13T01:31:17.614Z,1015.42
2018-07-13T01:32:17.593Z,1015.59
2018-07-13T01:33:17.575Z,1015.61
2018-07-13T01:34:17.589Z,1015.85
2018-07-13T01:35:17.606Z,1015.76
2018-07-13T01:36:17.571Z,1015.54
2018-07-13T01:37:17.578Z,1015.64
2018-07-13T01:38:17.616Z,1015.9
2018-07-13T01:39:17.637Z,1015.83
2018-07-13T01:40:17.564Z,1015.83
2018-07-13T01:41:17.582Z,1015.78
2018-07-13T01:42:17.605Z,1015.51
2018-07-13T01:43:17.593Z,1015.79
2018-07-13T01:44:17.605Z,1015.45
2018-07-13T01:45:17.579Z,1015.53
2018-07-13T01:46:17.626Z,1015.49
2018-07-13T01:47:17.622Z,1015.44
2018-07-13T01:48:17.593Z,1015.54
2018-07-13T01:49:17.605Z,1015.48
2018-07-13T01:50:17.610Z,1015.64
2018-07-13T01:51:17.595Z,1015.64
2018-07-13T01:52:17.616Z,1015.57
2018-07-13T01:53:17.601Z,1015.58
2018-07-13T01:54:17.603Z,1015.67
2018-07-13T01:55:17.611Z,1015.4
2018-07-13T01:56:17.652Z,1015.8
2018-07-13T01:57:17.611Z,1015.9
2018-07-13T01:58:17.990Z,1015.9
2018-07-13T01:59:17.636Z,1016.05
2018-07-13T02:00:17.620Z,1016.37
2018-07-13T02:01:17.608Z,1016.6
2018-07-13T02:02:17.609Z,1016.57
2018-07-13T02:03:17.666Z,1016.83
2018-07-13T02:04:17.625Z,1016.92
2018-07-13T02:05:17.630Z,1016.92
2018-07-13T02:06:17.633Z,1016.72
2018-07-13T02:07:17.654Z,1016.98
2018-07-13T02:08:17.647Z,1017.02
2018-07-13T02:09:17.636Z,1017.01
2018-07-13T02:10:17.633Z,1016.86
2018-07-13T02:11:17.662Z,1017.02
2018-07-13T02:12:17.629Z,1016.85
2018-07-13T02:13:17.712Z,1016.76
2018-07-13T02:14:17.657Z,1016.85
2018-07-13T02:15:17.677Z,1016.68
2018-07-13T02:16:17.653Z,1016.78
2018-07-13T02:17:17.637Z,1016.83
2018-07-13T02:18:17.633Z,1016.87
2018-07-13T02:19:17.669Z,1016.93
2018-07-13T02:20:17.672Z,1016.84
2018-07-13T02:21:17.706Z,1016.94
2018-07-13T02:22:17.686Z,1017.02
2018-07-13T02:23:17.697Z,1017.27
2018-07-13T02:24:17.648Z,1017.1
2018-07-13T02:25:17.683Z,1017.3
2018-07-13T02:26:17.664Z,1017.2
2018-07-13T02:27:17.701Z,1017.15
2018-07-13T02:28:17.666Z,1017.13
2018-07-13T02:29:17.661Z,1017.13
2018-07-13T02:30:17.665Z,1017.15
2018-07-13T02:31:17.715Z,1017.43
2018-07-13T02:32:17.709Z,1017.42
2018-07-13T02:33:17.685Z,1017.54
2018-07-13T02:34:17.672Z,1017.6
2018-07-13T02:38:46.458Z,1017.87
2018-07-13T02:39:46.444Z,1018.23
2018-07-13T02:40:46.453Z,1018.13
2018-07-13T02:41:46.447Z,1018.03
2018-07-13T02:42:46.436Z,1018.63
2018-07-13T02:43:46.458Z,1018.32
2018-07-13T02:44:46.504Z,1018.09
2018-07-13T02:45:46.470Z,1018.34
2018-07-13T02:46:46.501Z,1018.61
2018-07-13T02:47:46.458Z,1018.7
2018-07-13T02:48:47.813Z,1018.83
2018-07-13T02:49:46.480Z,1018.59
2018-07-13T02:54:15.079Z,1018.97
2018-07-13T02:55:15.085Z,1019.19
2018-07-13T02:56:15.065Z,1018.87
2018-07-13T02:57:15.095Z,1019.07
2018-07-13T02:58:15.062Z,1019.27
2018-07-13T02:59:15.073Z,1019.19
2018-07-13T03:00:15.047Z,1019.3
2018-07-13T03:01:15.084Z,1019.14
2018-07-13T03:02:15.090Z,1019.23
2018-07-13T03:03:15.089Z,1019.43
2018-07-13T03:04:15.074Z,1019.54
2018-07-13T03:05:15.125Z,1019.4
2018-07-13T03:06:15.175Z,1019.33
2018-07-13T03:07:15.088Z,1019.49
2018-07-13T03:08:15.080Z,1019.35
2018-07-13T03:09:15.101Z,1019.49
2018-07-13T03:10:15.107Z,1019.28
2018-07-13T03:11:15.110Z,1019.37
2018-07-13T03:12:15.065Z,1019.14
2018-07-13T03:13:15.095Z,1019.18
2018-07-13T03:14:15.109Z,1018.98
2018-07-13T03:15:15.088Z,1019.07
2018-07-13T03:16:15.121Z,1019.02
2018-07-13T03:17:15.103Z,1018.96
2018-07-13T03:18:15.106Z,1019.16
2018-07-13T03:19:15.112Z,1018.97
2018-07-13T03:20:15.105Z,1018.84
2018-07-13T03:21:15.103Z,1019.05
2018-07-13T03:22:15.237Z,1018.85
2018-07-13T03:23:15.117Z,1018.82
2018-07-13T03:24:15.118Z,1018.73
2018-07-13T03:25:15.150Z,1018.92
2018-07-13T03:26:15.118Z,1018.75
2018-07-13T03:27:15.120Z,1018.74
2018-07-13T03:28:15.131Z,1018.65
2018-07-13T03:29:15.127Z,1018.48
2018-07-13T03:30:15.119Z,1018.71
2018-07-13T03:31:15.122Z,1018.8
2018-07-13T03:32:15.158Z,1018.85
2018-07-13T03:33:15.153Z,1018.74
2018-07-13T03:34:15.137Z,1018.74
2018-07-13T03:35:15.152Z,1019.04
2018-07-13T03:36:15.123Z,1018.96
2018-07-13T03:37:15.158Z,1019.08
2018-07-13T03:38:15.147Z,1019.2
2018-07-13T03:39:15.120Z,1019.16
2018-07-13T03:40:15.144Z,1019.05
2018-07-13T03:41:15.131Z,1018.7
2018-07-13T03:42:15.157Z,1018.97
2018-07-13T03:43:15.149Z,1019.07
2018-07-13T03:44:15.132Z,1018.81
2018-07-13T03:45:15.164Z,1019.16
2018-07-13T03:46:15.167Z,1019.38
2018-07-13T03:47:15.171Z,1019.52
2018-07-13T03:48:15.234Z,1019.41
2018-07-13T03:49:15.188Z,1019.78
2018-07-13T03:50:15.162Z,1019.86
2018-07-13T03:51:15.180Z,1019.68
2018-07-13T03:52:15.165Z,1020.05
2018-07-13T03:53:15.165Z,1020.13
2018-07-13T03:54:15.262Z,1020.12
2018-07-13T03:55:15.203Z,1020.04
2018-07-13T03:56:15.153Z,1020.39
2018-07-13T03:57:15.179Z,1020.4
2018-07-13T03:59:34.479Z,1020.14
2018-07-13T04:00:34.086Z,1020.15
2018-07-13T04:01:34.053Z,1019.79
2018-07-13T04:06:02.875Z,1019.67
2018-07-13T04:07:02.478Z,1019.72
2018-07-13T04:08:02.460Z,1019.29
2018-07-13T04:09:02.467Z,1019.47
2018-07-13T04:10:02.516Z,1019.38
2018-07-13T04:11:02.483Z,1019.39
2018-07-13T04:12:02.501Z,1019.25
2018-07-13T04:13:02.468Z,1019.14
2018-07-13T04:14:02.480Z,1019.29
2018-07-13T04:15:02.579Z,1019.04
2018-07-13T04:16:02.505Z,1019.02
2018-07-13T04:17:02.527Z,1019.04
2018-07-13T04:18:02.465Z,1019.12
2018-07-13T04:19:02.496Z,1019.02
2018-07-13T04:20:02.490Z,1018.87
2018-07-13T04:21:02.506Z,1018.94
2018-07-13T04:22:02.492Z,1019.24
2018-07-13T04:23:02.497Z,1018.86
2018-07-13T04:24:02.486Z,1018.84
2018-07-13T04:25:02.493Z,1018.98
2018-07-13T04:26:02.490Z,1018.9
2018-07-13T04:27:02.482Z,1018.99
2018-07-13T04:29:21.839Z,1018.84
2018-07-13T04:30:21.883Z,1018.79
2018-07-13T04:31:21.801Z,1019.04
2018-07-13T04:32:21.833Z,1018.79
2018-07-13T04:33:21.821Z,1019.22
2018-07-13T04:34:38.081Z,1019.28
2018-07-13T04:35:37.989Z,1019.22
2018-07-13T04:36:37.996Z,1019.57
2018-07-13T04:37:37.993Z,1019.5
2018-07-13T04:38:38.003Z,1019.63
2018-07-13T04:39:37.986Z,1019.64
2018-07-13T04:40:38.003Z,1019.74
2018-07-13T04:41:38.031Z,1019.7
2018-07-13T04:42:38.004Z,1019.78
2018-07-13T04:43:38.035Z,1019.69
2018-07-13T04:44:38.026Z,1019.76
2018-07-13T04:45:38.033Z,1019.95
2018-07-13T04:46:38.032Z,1019.6
2018-07-13T04:47:38.050Z,1019.85
2018-07-13T04:48:38.154Z,1019.66
2018-07-13T04:49:38.009Z,1019.93
2018-07-13T04:50:38.010Z,1019.61
2018-07-13T04:51:38.034Z,1019.43
2018-07-13T04:52:38.041Z,1019.6
2018-07-13T04:53:38.030Z,1019.6
2018-07-13T04:54:38.014Z,1019.45
2018-07-13T04:55:38.011Z,1019.44
2018-07-13T04:56:38.021Z,1019.21
2018-07-13T04:57:38.030Z,1019.43
2018-07-13T04:58:38.053Z,1019.41
2018-07-13T04:59:38.810Z,1019.43
2018-07-13T05:00:38.073Z,1019.29
2018-07-13T05:01:38.054Z,1019.46
2018-07-13T05:02:38.080Z,1019.37
2018-07-13T05:03:38.107Z,1019.38
2018-07-13T05:04:38.379Z,1019.41
2018-07-13T05:05:38.079Z,1019.12
2018-07-13T05:06:38.046Z,1018.96
2018-07-13T05:07:38.087Z,1018.79
2018-07-13T05:08:38.052Z,1019.04
2018-07-13T05:09:38.076Z,1018.76
2018-07-13T05:10:38.066Z,1018.85
2018-07-13T05:11:38.076Z,1018.65
2018-07-13T05:12:38.045Z,1018.59
2018-07-13T05:13:38.077Z,1018.34
2018-07-13T05:14:38.094Z,1018.47
2018-07-13T05:15:38.074Z,1018.41
2018-07-13T05:16:38.076Z,1018.3
2018-07-13T05:17:38.054Z,1018.46
2018-07-13T05:18:38.082Z,1018.32
2018-07-13T05:19:38.087Z,1018.32
2018-07-13T05:20:38.075Z,1018.12
2018-07-13T05:21:38.110Z,1018.12
2018-07-13T05:22:38.082Z,1018.12
2018-07-13T05:23:38.075Z,1018.27
2018-07-13T05:24:38.103Z,1018.12
2018-07-13T05:25:38.088Z,1017.84
2018-07-13T05:26:38.111Z,1018.02
2018-07-13T05:27:38.094Z,1017.99
2018-07-13T05:28:38.174Z,1018.28
2018-07-13T05:29:38.105Z,1017.94
2018-07-13T05:30:38.159Z,1017.98
2018-07-13T05:31:38.101Z,1017.94
2018-07-13T05:32:38.106Z,1017.9
2018-07-13T05:33:38.196Z,1017.56
2018-07-13T05:34:38.442Z,1017.46
2018-07-13T05:35:38.120Z,1017.6
2018-07-13T05:36:38.101Z,1017.28
2018-07-13T05:37:38.082Z,1017.37
2018-07-13T05:38:38.139Z,1017.12
2018-07-13T05:39:38.095Z,1017.18
2018-07-13T05:40:38.127Z,1016.95
2018-07-13T05:41:38.142Z,1016.95
2018-07-13T05:42:38.109Z,1016.89
2018-07-13T05:43:38.090Z,1016.99
2018-07-13T05:44:38.114Z,1016.74
2018-07-13T05:45:38.113Z,1016.92
2018-07-13T05:46:38.135Z,1016.99
2018-07-13T05:47:38.119Z,1016.77
2018-07-13T05:48:38.208Z,1016.85
2018-07-13T05:49:38.156Z,1016.64
2018-07-13T05:56:16.579Z,1016.3
2018-07-13T05:57:16.537Z,1016.08
2018-07-13T05:58:16.509Z,1016.13
2018-07-13T06:00:35.577Z,1015.91
2018-07-13T06:01:35.582Z,1015.94
2018-07-13T06:02:35.561Z,1015.75
2018-07-13T06:03:35.573Z,1015.77
2018-07-13T06:04:35.577Z,1015.89
2018-07-13T06:05:35.564Z,1015.62
2018-07-13T06:06:35.580Z,1015.89
2018-07-13T06:07:35.573Z,1016.25
2018-07-13T06:08:35.567Z,1016.25
2018-07-13T06:09:35.626Z,1016.24
2018-07-13T06:10:35.581Z,1016.32
2018-07-13T06:11:35.580Z,1016.1
2018-07-13T06:12:35.578Z,1016.46
2018-07-13T06:13:35.612Z,1016.42
2018-07-13T06:14:35.650Z,1016.24
2018-07-13T06:15:35.663Z,1016.24
2018-07-13T06:16:35.610Z,1016.02
2018-07-13T06:17:35.630Z,1015.95
2018-07-13T06:18:35.595Z,1015.68
2018-07-13T06:19:35.624Z,1015.33
2018-07-13T06:20:35.598Z,1015.17
2018-07-13T06:21:35.663Z,1015.16
2018-07-13T06:22:35.611Z,1014.97
2018-07-13T06:23:35.593Z,1014.51
2018-07-13T06:24:35.596Z,1014.56
2018-07-13T06:25:35.588Z,1014.51
2018-07-13T06:26:37.103Z,1014.45
2018-07-13T06:31:08.435Z,1013.31
2018-07-13T06:32:08.411Z,1013.14
2018-07-13T06:33:08.431Z,1013.03
2018-07-13T06:34:08.473Z,1012.96
2018-07-13T06:35:08.444Z,1012.97
2018-07-13T06:36:08.438Z,1013.05
2018-07-13T06:37:08.451Z,1013.77
2018-07-13T06:38:08.437Z,1013.88
2018-07-13T06:39:08.413Z,1014.53
2018-07-13T06:40:08.459Z,1015.24
2018-07-13T06:41:08.456Z,1015.78
2018-07-13T06:42:08.462Z,1016.33
2018-07-13T06:43:08.435Z,1016.86
2018-07-13T06:44:08.426Z,1017.43
2018-07-13T06:45:08.425Z,1018.13
2018-07-13T06:46:08.430Z,1019.15
2018-07-13T06:47:08.492Z,1019.87
2018-07-13T06:48:08.443Z,1020.94
2018-07-13T06:49:08.479Z,1022.3
2018-07-13T06:50:08.473Z,1023.49
2018-07-13T06:51:08.445Z,1024.53
2018-07-13T06:52:08.524Z,1025.37
2018-07-13T06:53:08.521Z,1026.41
2018-07-13T06:54:08.426Z,1027.12
2018-07-13T07:01:51.366Z,1028.91
2018-07-13T07:02:51.315Z,1028.82
2018-07-13T07:03:51.421Z,1029.16
2018-07-13T07:04:51.353Z,1029.06
2018-07-13T07:05:51.337Z,1029.01
2018-07-13T07:06:51.358Z,1029.46
2018-07-13T07:07:51.343Z,1029.54
2018-07-13T07:08:51.303Z,1029.89
2018-07-13T07:09:51.312Z,1030.36
2018-07-13T07:10:51.395Z,1031.16
2018-07-13T07:11:51.353Z,1031.48
2018-07-13T07:12:51.348Z,1031.76
2018-07-13T07:13:51.329Z,1032.29
2018-07-13T07:14:51.343Z,1032.73
2018-07-13T07:15:51.341Z,1033.11
2018-07-13T07:16:51.347Z,1032.96
2018-07-13T07:17:51.422Z,1033.79
2018-07-13T07:18:51.342Z,1034.44
2018-07-13T07:19:51.343Z,1034.61
2018-07-13T07:20:51.337Z,1034.3
2018-07-13T07:21:51.378Z,1033.88
2018-07-13T07:22:51.362Z,1033.66
2018-07-13T07:23:51.330Z,1033.34
2018-07-13T07:24:51.357Z,1032.85
2018-07-13T07:25:51.378Z,1032.47
2018-07-13T07:26:51.416Z,1032.31
2018-07-13T07:27:51.397Z,1032.11
2018-07-13T07:28:51.348Z,1031.94
2018-07-13T07:29:51.379Z,1031.45
2018-07-13T07:30:51.371Z,1031.12
2018-07-13T07:31:51.378Z,1031.11
2018-07-13T07:32:51.417Z,1030.53
2018-07-13T07:37:20.314Z,1028.88
2018-07-13T07:38:20.348Z,1028.53
2018-07-13T07:39:20.299Z,1027.95
2018-07-13T07:40:20.309Z,1027.63
2018-07-13T07:41:20.288Z,1027.22
2018-07-13T07:42:20.325Z,1026.96
2018-07-13T07:43:20.340Z,1026.33
2018-07-13T07:44:20.314Z,1026.55
2018-07-13T07:45:20.309Z,1025.96
2018-07-13T07:46:20.323Z,1025.88
2018-07-13T07:47:20.335Z,1025.24
2018-07-13T07:48:20.297Z,1025.16
2018-07-13T07:49:20.336Z,1024.63
2018-07-13T07:50:20.341Z,1024.49
2018-07-13T07:51:20.323Z,1023.87
2018-07-13T07:52:20.333Z,1023.54
2018-07-13T07:53:20.345Z,1023.51
2018-07-13T07:54:20.353Z,1022.87
2018-07-13T07:55:20.357Z,1022.61
2018-07-13T07:56:20.443Z,1022.01
2018-07-13T07:57:20.398Z,1021.82
2018-07-13T07:58:20.459Z,1021.59
2018-07-13T08:00:39.717Z,1021.28
2018-07-13T08:01:39.750Z,1021.62
2018-07-13T08:02:39.685Z,1021.92
2018-07-13T08:03:39.709Z,1022.29
2018-07-13T08:04:39.724Z,1022.71
2018-07-13T08:05:39.708Z,1022.98
2018-07-13T08:06:39.917Z,1023.38
2018-07-13T08:07:39.812Z,1023.71
2018-07-13T08:08:39.745Z,1023.63
2018-07-13T08:09:39.746Z,1024.13
2018-07-13T08:10:39.704Z,1023.95
2018-07-13T08:11:39.756Z,1024.14
2018-07-13T08:12:39.725Z,1024.5
2018-07-13T08:13:39.808Z,1024.95
2018-07-13T08:14:39.872Z,1025.24
2018-07-13T08:15:39.706Z,1025.53
2018-07-13T08:16:39.740Z,1026.12
2018-07-13T08:17:39.719Z,1026.5
2018-07-13T08:18:39.779Z,1026.62
2018-07-13T08:19:39.761Z,1026.67
2018-07-13T08:20:39.741Z,1026.83
2018-07-13T08:21:39.795Z,1026.68
2018-07-13T08:22:39.756Z,1026.38
2018-07-13T08:23:39.739Z,1026.16
2018-07-13T08:24:39.741Z,1026.18
2018-07-13T08:25:39.743Z,1026.01
2018-07-13T08:26:39.845Z,1025.43
2018-07-13T08:27:39.758Z,1025.58
2018-07-13T08:28:39.761Z,1025.3
2018-07-13T08:29:39.812Z,1025.02
2018-07-13T08:30:39.765Z,1024.78
2018-07-13T08:31:39.772Z,1024.5
2018-07-13T08:32:39.743Z,1024.68
2018-07-13T08:33:39.748Z,1024.51
2018-07-13T08:34:39.756Z,1024.53
2018-07-13T08:35:39.734Z,1024.38
2018-07-13T08:36:39.770Z,1024.27
2018-07-13T08:37:39.828Z,1024
2018-07-13T08:38:39.804Z,1023.86
2018-07-13T08:39:39.795Z,1024.01
2018-07-13T08:40:39.775Z,1023.66
2018-07-13T08:41:39.806Z,1023.41
2018-07-13T08:42:39.785Z,1023.29
2018-07-13T08:43:39.788Z,1023.39
2018-07-13T08:44:39.780Z,1022.68
2018-07-13T08:45:39.847Z,1022.55
2018-07-13T08:46:39.792Z,1022.88
2018-07-13T08:47:39.766Z,1022.64
2018-07-13T08:48:39.805Z,1022.35
2018-07-13T08:49:39.839Z,1022.04
2018-07-13T08:50:39.807Z,1022.13
2018-07-13T08:51:39.887Z,1022.05
2018-07-13T08:52:39.794Z,1021.79
2018-07-13T08:53:39.777Z,1021.85
2018-07-13T08:54:39.837Z,1021.62
2018-07-13T08:55:39.824Z,1021.61
2018-07-13T08:56:39.777Z,1021.5
2018-07-13T08:57:39.785Z,1021.43
2018-07-13T08:58:39.809Z,1021.62
2018-07-13T08:59:39.855Z,1021.01
2018-07-13T09:00:39.833Z,1021.36
2018-07-13T09:01:39.836Z,1021.02
2018-07-13T09:10:28.211Z,1020.76
2018-07-13T09:11:28.206Z,1020.67
2018-07-13T09:12:28.622Z,1020.61
2018-07-13T09:13:28.241Z,1020.33
2018-07-13T09:14:28.218Z,1020.31
2018-07-13T09:15:28.199Z,1020.35
2018-07-13T09:16:28.227Z,1020.42
2018-07-13T09:17:28.208Z,1020.35
2018-07-13T09:18:28.198Z,1020.13
2018-07-13T09:19:28.200Z,1020.65
2018-07-13T09:20:28.248Z,1019.88
2018-07-13T09:21:28.579Z,1019.95
2018-07-13T09:22:28.242Z,1020.07
2018-07-13T09:23:28.236Z,1020.09
2018-07-13T09:24:28.265Z,1020.11
2018-07-13T09:25:28.238Z,1020.09
2018-07-13T09:26:28.221Z,1019.94
2018-07-13T09:27:28.221Z,1020.01
2018-07-13T09:28:28.255Z,1019.71
2018-07-13T09:29:28.285Z,1019.69
2018-07-13T09:30:28.283Z,1019.74
2018-07-13T09:37:55.352Z,1019.74
2018-07-13T09:38:07.106Z,1019.55
2018-07-13T09:39:06.945Z,1019.54
2018-07-13T09:40:06.928Z,1019.48
2018-07-13T09:41:06.960Z,1019.31
2018-07-13T09:42:06.950Z,1019.31
2018-07-13T09:43:06.972Z,1019.06
2018-07-13T09:44:06.943Z,1019.18
2018-07-13T09:45:06.961Z,1019.23
2018-07-13T09:46:06.948Z,1018.89
2018-07-13T09:47:06.959Z,1019.18
2018-07-13T09:48:06.988Z,1019.26
2018-07-13T09:49:06.968Z,1019.21
2018-07-13T09:50:06.973Z,1018.83
2018-07-13T09:51:07.000Z,1019.32
2018-07-13T09:57:45.452Z,1019.14
2018-07-13T10:02:14.114Z,1019.15
2018-07-13T10:03:14.046Z,1019.07
2018-07-13T10:04:13.985Z,1019.09
2018-07-13T10:05:14.061Z,1018.94
2018-07-13T10:06:14.030Z,1018.8
2018-07-13T10:07:14.236Z,1018.99
2018-07-13T10:08:13.984Z,1018.85
2018-07-13T10:09:14.008Z,1018.92
2018-07-13T10:10:14.035Z,1018.89
2018-07-13T10:11:14.098Z,1018.53
2018-07-13T10:12:14.087Z,1018.72
2018-07-13T10:13:14.016Z,1018.59
2018-07-13T10:14:14.047Z,1018.69
2018-07-13T10:15:14.032Z,1018.42
2018-07-13T10:16:14.025Z,1018.49
2018-07-13T10:17:14.065Z,1018.32
2018-07-13T10:18:14.010Z,1018.25
2018-07-13T10:19:14.096Z,1018.48
2018-07-13T10:20:14.051Z,1018.41
2018-07-13T10:21:14.063Z,1018.51
2018-07-13T10:22:14.089Z,1018.46
2018-07-13T10:23:14.070Z,1018.18
2018-07-13T10:24:14.024Z,1018.23
2018-07-13T10:25:14.040Z,1018.34
2018-07-13T10:26:14.116Z,1018.11
2018-07-13T10:27:14.041Z,1018.05
2018-07-13T10:28:14.050Z,1017.96
2018-07-13T10:29:14.102Z,1018.16
2018-07-13T10:30:14.075Z,1018.05
2018-07-13T10:31:14.101Z,1017.88
2018-07-13T10:32:14.052Z,1017.96
2018-07-13T10:33:14.070Z,1017.86
2018-07-13T10:34:14.121Z,1017.55
2018-07-13T10:35:14.110Z,1018.02
2018-07-13T10:36:14.776Z,1017.81
2018-07-13T10:37:14.084Z,1017.71
2018-07-13T10:38:14.090Z,1017.77
2018-07-13T10:39:14.072Z,1017.76
2018-07-13T10:40:14.930Z,1017.62
2018-07-13T10:41:14.115Z,1017.53
2018-07-13T10:42:14.147Z,1017.61
2018-07-13T10:46:42.431Z,1017.42
2018-07-13T10:47:42.434Z,1017.5
2018-07-13T10:48:43.194Z,1017.41
2018-07-13T10:49:42.404Z,1017.71
2018-07-13T10:50:42.395Z,1017.39
2018-07-13T10:51:42.400Z,1017.28
2018-07-13T10:52:42.408Z,1017.11
2018-07-13T10:53:42.430Z,1017.27
2018-07-13T10:54:42.405Z,1016.81
2018-07-13T10:55:42.444Z,1017.36
2018-07-13T10:56:42.436Z,1017.23
2018-07-13T10:57:42.479Z,1017.37
2018-07-13T10:58:42.492Z,1017.33
2018-07-13T10:59:42.418Z,1017.16
2018-07-13T11:00:42.456Z,1017.01
2018-07-13T11:01:42.417Z,1016.91
2018-07-13T11:02:42.451Z,1016.48
2018-07-13T11:03:42.429Z,1016.23
2018-07-13T11:04:42.439Z,1015.96
2018-07-13T11:05:42.431Z,1015.64
2018-07-13T11:06:42.555Z,1015.38
2018-07-13T11:07:42.430Z,1015.21
2018-07-13T11:08:42.488Z,1014.96
2018-07-13T11:09:42.439Z,1014.75
2018-07-13T11:10:42.439Z,1014.46
2018-07-13T11:11:42.457Z,1014.16
2018-07-13T11:12:42.454Z,1014.11
2018-07-13T11:13:42.483Z,1013.79
2018-07-13T11:14:42.443Z,1013.63
2018-07-13T11:15:42.448Z,1013.3
2018-07-13T11:16:42.442Z,1013.39
2018-07-13T11:17:42.465Z,1013.28
2018-07-13T11:18:42.436Z,1013.05
2018-07-13T11:19:42.452Z,1012.98
2018-07-13T11:20:42.535Z,1012.81
2018-07-13T11:21:42.471Z,1012.99
2018-07-13T11:22:42.464Z,1012.85
2018-07-13T11:23:42.459Z,1013.19
2018-07-13T11:24:42.457Z,1012.84
2018-07-13T11:25:42.486Z,1013.03
2018-07-13T11:26:42.450Z,1012.85
2018-07-13T11:27:42.510Z,1013.14
2018-07-13T11:28:42.463Z,1012.69
2018-07-13T11:29:42.489Z,1012.5
2018-07-13T11:30:42.472Z,1012.34
2018-07-13T11:31:42.477Z,1012.09
2018-07-13T11:32:42.662Z,1011.8
2018-07-13T11:33:42.510Z,1011.51
2018-07-13T11:34:42.470Z,1011.21
2018-07-13T11:35:42.481Z,1011
2018-07-13T11:36:42.530Z,1010.35
2018-07-13T11:37:42.493Z,1009.91
2018-07-13T11:38:42.497Z,1009.53
2018-07-13T11:39:42.526Z,1009.28
2018-07-13T11:40:42.489Z,1008.79
2018-07-13T11:41:42.511Z,1008.47
2018-07-13T11:42:42.524Z,1008.16
2018-07-13T11:43:42.526Z,1007.92
2018-07-13T11:44:42.517Z,1007.81
2018-07-13T11:45:42.464Z,1007.49
2018-07-13T11:46:42.470Z,1007.39
2018-07-13T11:47:42.475Z,1007.07
2018-07-13T11:48:42.511Z,1006.87
2018-07-13T11:49:42.515Z,1006.42
2018-07-13T11:50:42.470Z,1006.46
2018-07-13T11:51:42.569Z,1005.97
2018-07-13T11:52:42.438Z,1005.83
2018-07-13T11:53:42.461Z,1005.91
2018-07-13T11:54:42.444Z,1005.78
2018-07-13T11:55:42.486Z,1005.51
2018-07-13T11:56:42.491Z,1005.65
2018-07-13T11:57:42.484Z,1005.45
2018-07-13T11:58:42.470Z,1005.49
2018-07-13T11:59:42.501Z,1005.58
2018-07-13T12:00:42.640Z,1005.38
2018-07-13T12:01:42.492Z,1005.39
2018-07-13T12:02:42.495Z,1005.55
2018-07-13T12:03:42.506Z,1005.35
2018-07-13T12:04:42.495Z,1005.46
2018-07-13T12:05:42.470Z,1005.66
2018-07-13T12:06:42.499Z,1005.41
2018-07-13T12:07:42.685Z,1005.51
2018-07-13T12:08:42.548Z,1005.62
2018-07-13T12:09:42.529Z,1005.54
2018-07-13T12:10:42.548Z,1005.72
2018-07-13T12:11:42.558Z,1005.86
2018-07-13T12:12:42.568Z,1006.03
2018-07-13T12:13:42.549Z,1005.94
2018-07-13T12:14:42.602Z,1006.11
2018-07-13T12:15:42.558Z,1006.38
2018-07-13T12:16:42.664Z,1006.34
2018-07-13T12:17:42.650Z,1006.33
2018-07-13T12:18:42.582Z,1006.51
2018-07-13T12:19:42.553Z,1006.72
2018-07-13T12:20:42.544Z,1006.7
2018-07-13T12:21:42.553Z,1006.76
2018-07-13T12:22:42.567Z,1006.75
2018-07-13T12:23:42.569Z,1006.94
2018-07-13T12:24:42.547Z,1007.35
2018-07-13T12:25:42.543Z,1007.04
2018-07-13T12:26:43.214Z,1007.21
2018-07-13T12:27:43.196Z,1007.21
2018-07-13T12:28:42.568Z,1007.36
2018-07-13T12:29:42.595Z,1007.53
2018-07-13T12:30:42.557Z,1007.08
2018-07-13T12:31:42.559Z,1007.64
2018-07-13T12:32:42.565Z,1007.36
2018-07-13T12:33:42.584Z,1007.28
2018-07-13T12:34:42.604Z,1007.35
2018-07-13T12:35:42.597Z,1007.83
2018-07-13T12:36:42.592Z,1008.15
2018-07-13T12:37:42.597Z,1008.03
2018-07-13T12:38:42.604Z,1008.06
2018-07-13T12:39:42.616Z,1007.69
2018-07-13T12:40:42.569Z,1007.82
2018-07-13T12:41:42.599Z,1007.81
2018-07-13T12:42:42.586Z,1007.79
2018-07-13T12:43:43.310Z,1008.23
2018-07-13T12:44:42.648Z,1008.04
2018-07-13T12:45:42.598Z,1008.14
2018-07-13T12:46:42.597Z,1008.2
2018-07-13T12:47:42.623Z,1008.2
2018-07-13T12:48:42.631Z,1008.36
2018-07-13T12:49:42.641Z,1008.3
2018-07-13T12:50:42.620Z,1008.34
2018-07-13T12:51:42.612Z,1008.29
2018-07-13T12:52:42.601Z,1008.47
2018-07-13T12:53:42.604Z,1008.48
2018-07-13T12:54:42.672Z,1008.53
2018-07-13T12:55:42.615Z,1008.36
2018-07-13T12:56:42.638Z,1008.69
2018-07-13T12:57:42.670Z,1008.53
2018-07-13T12:58:42.667Z,1008.76
2018-07-13T12:59:42.614Z,1008.85
2018-07-13T13:00:42.610Z,1008.73
2018-07-13T13:01:42.643Z,1008.82
2018-07-13T13:02:42.668Z,1008.99
2018-07-13T13:03:42.700Z,1008.69
2018-07-13T13:04:42.653Z,1008.81
2018-07-13T13:05:42.770Z,1008.68
2018-07-13T13:06:42.654Z,1008.77
2018-07-13T13:07:42.642Z,1008.86
2018-07-13T13:08:42.677Z,1008.91